America — WD15630 — position and weather

sailwx.info

Track history (hours):
 
Tides and Currents Weather Stations Pressure Air Temp Water Temp Dewpoint Dewpoint Depression Visibility Wind Speed Wind Dir Waves Ship Positions

America

Last reported at 2017-Nov-16 04:44 UTC. Time now 2017-Nov-19 03:27 UTC.
Position N 32°44' W 091°04'.

Length 80 m; draft 2.4 m.

Type: Passenger vessel. MMSI: 367710540.

Date/timePositionNaut miles runAvg speedWind from/ knotsBaromVisibWave heightAir tempDewpointWater temp
2017-Nov-16 04:44N 32°44' W 091°04'4 7.0
2017-Nov-16 04:08N 32°40' W 091°07'1 9.2
2017-Nov-16 04:01N 32°40' W 091°08'2 3.9
2017-Nov-16 03:31N 32°38' W 091°09'3 5.0
2017-Nov-16 03:00N 32°36' W 091°08'4 8.1
2017-Nov-16 02:30N 32°33' W 091°06'4 8.7
2017-Nov-16 02:00N 32°28' W 091°06'4 8.8
2017-Nov-16 01:31N 32°26' W 091°02'3 6.9
2017-Nov-16 01:00N 32°23' W 090°60'2 3.6
2017-Nov-16 00:31N 32°21' W 090°59'4 8.8
2017-Nov-16 00:01N 32°20' W 090°54'1 2.7
2017-Nov-15 23:31N 32°21' W 090°53'0 0.0
2017-Nov-15 22:58N 32°21' W 090°53'0 0.0
2017-Nov-15 22:28N 32°21' W 090°53'0 0.0
2017-Nov-15 21:58N 32°21' W 090°53'0 0.0
2017-Nov-15 21:28N 32°21' W 090°53'0 0.0
2017-Nov-15 20:58N 32°21' W 090°53'0 0.0
2017-Nov-15 20:28N 32°21' W 090°53'0 0.0
2017-Nov-15 19:58N 32°21' W 090°53'0 0.0
2017-Nov-15 19:28N 32°21' W 090°53'0 0.0
2017-Nov-15 18:58N 32°21' W 090°53'0 0.0
2017-Nov-15 18:28N 32°21' W 090°53'0 0.0
2017-Nov-15 17:58N 32°21' W 090°53'0 0.0
2017-Nov-15 17:28N 32°21' W 090°53'0 0.0
2017-Nov-15 16:58N 32°21' W 090°53'0 0.0
2017-Nov-15 16:25N 32°21' W 090°53'0 0.0
2017-Nov-15 15:58N 32°21' W 090°53'0 0.0
2017-Nov-15 15:28N 32°21' W 090°53'0 0.0
2017-Nov-15 14:58N 32°21' W 090°53'0 0.0
2017-Nov-15 14:28N 32°21' W 090°53'0 0.0
2017-Nov-15 13:58N 32°21' W 090°53'0 0.0
2017-Nov-15 13:28N 32°21' W 090°53'0 0.0
2017-Nov-15 12:58N 32°21' W 090°53'0 0.0
2017-Nov-15 12:28N 32°21' W 090°53'0 0.0
2017-Nov-15 12:00N 32°21' W 090°53'2 3.5
2017-Nov-15 11:30N 32°20' W 090°54'5 9.1
2017-Nov-15 11:00N 32°16' W 090°58'4 8.4
2017-Nov-15 10:30N 32°12' W 090°59'4 8.9
2017-Nov-15 10:00N 32°08' W 091°00'4 6.8
2017-Nov-15 09:27N 32°08' W 091°05'4 6.8
2017-Nov-15 08:47N 32°04' W 091°03'3 9.3
2017-Nov-15 08:30N 32°01' W 091°04'6 8.2
2017-Nov-15 07:46N 31°58' W 091°11'5 3.8
2017-Nov-15 06:28N 31°54' W 091°12'15 7.8
2017-Nov-15 04:31N 31°42' W 091°24'  
Track history (hours):
 
Tides and Currents Weather Stations Pressure Air Temp Water Temp Dewpoint Dewpoint Depression Visibility Wind Speed Wind Dir Waves Ship Positions

America

Last reported at 2017-Nov-16 04:44 UTC. Time now 2017-Nov-19 03:27 UTC.
Position N 32°44' W 091°04'.

Length 80 m; draft 2.4 m.

Type: Passenger vessel. MMSI: 367710540.

Date/timePositionNaut miles runAvg speedWind from/ knotsBaromVisibWave heightAir tempDewpointWater temp
2017-Nov-16 04:44N 32°44' W 091°04'4 7.0
2017-Nov-16 04:08N 32°40' W 091°07'1 9.2
2017-Nov-16 04:01N 32°40' W 091°08'2 3.9
2017-Nov-16 03:31N 32°38' W 091°09'3 5.0
2017-Nov-16 03:00N 32°36' W 091°08'4 8.1
2017-Nov-16 02:30N 32°33' W 091°06'4 8.7
2017-Nov-16 02:00N 32°28' W 091°06'4 8.8
2017-Nov-16 01:31N 32°26' W 091°02'3 6.9
2017-Nov-16 01:00N 32°23' W 090°60'2 3.6
2017-Nov-16 00:31N 32°21' W 090°59'4 8.8
2017-Nov-16 00:01N 32°20' W 090°54'1 2.7
2017-Nov-15 23:31N 32°21' W 090°53'0 0.0
2017-Nov-15 22:58N 32°21' W 090°53'0 0.0
2017-Nov-15 22:28N 32°21' W 090°53'0 0.0
2017-Nov-15 21:58N 32°21' W 090°53'0 0.0
2017-Nov-15 21:28N 32°21' W 090°53'0 0.0
2017-Nov-15 20:58N 32°21' W 090°53'0 0.0
2017-Nov-15 20:28N 32°21' W 090°53'0 0.0
2017-Nov-15 19:58N 32°21' W 090°53'0 0.0
2017-Nov-15 19:28N 32°21' W 090°53'0 0.0
2017-Nov-15 18:58N 32°21' W 090°53'0 0.0
2017-Nov-15 18:28N 32°21' W 090°53'0 0.0
2017-Nov-15 17:58N 32°21' W 090°53'0 0.0
2017-Nov-15 17:28N 32°21' W 090°53'0 0.0
2017-Nov-15 16:58N 32°21' W 090°53'0 0.0
2017-Nov-15 16:25N 32°21' W 090°53'0 0.0
2017-Nov-15 15:58N 32°21' W 090°53'0 0.0
2017-Nov-15 15:28N 32°21' W 090°53'0 0.0
2017-Nov-15 14:58N 32°21' W 090°53'0 0.0
2017-Nov-15 14:28N 32°21' W 090°53'0 0.0
2017-Nov-15 13:58N 32°21' W 090°53'0 0.0
2017-Nov-15 13:28N 32°21' W 090°53'0 0.0
2017-Nov-15 12:58N 32°21' W 090°53'0 0.0
2017-Nov-15 12:28N 32°21' W 090°53'0 0.0
2017-Nov-15 12:00N 32°21' W 090°53'2 3.5
2017-Nov-15 11:30N 32°20' W 090°54'5 9.1
2017-Nov-15 11:00N 32°16' W 090°58'4 8.4
2017-Nov-15 10:30N 32°12' W 090°59'4 8.9
2017-Nov-15 10:00N 32°08' W 091°00'4 6.8
2017-Nov-15 09:27N 32°08' W 091°05'4 6.8
2017-Nov-15 08:47N 32°04' W 091°03'3 9.3
2017-Nov-15 08:30N 32°01' W 091°04'6 8.2
2017-Nov-15 07:46N 31°58' W 091°11'5 3.8
2017-Nov-15 06:28N 31°54' W 091°12'15 7.8
2017-Nov-15 04:31N 31°42' W 091°24'  

Dump ship's entire track history